Terminal Aerodrome Forecast
Issued by NWS Shreveport, LA

Home | Current Version | Previous Version | Text Only | Print | Product List | Glossary On
Versions: 1 2 3 4 5 6 7 8 9 10 11 12 13 14
013
FTUS44 KSHV 220831 AAA
TAFGGG
TAF AMD
KGGG 220831Z 2209/2306 21010KT P6SM VCTS SCT015CB BKN030 BKN070
      TEMPO 2209/2211 VRB16G35KT 3SM TSRA BR BKN015CB OVC025
     FM221100 VRB10G24KT 4SM -TSRA BR BKN015CB OVC030
      TEMPO 2211/2213 25010KT 4SM TSRA BR OVC010CB
     FM221300 33014KT P6SM BKN015
     FM221500 34016G22KT P6SM BKN035
     FM221800 34014G20KT P6SM OVC015
     FM222000 34017G23KT P6SM SKC=

USA.gov is the U.S. government's official web portal to all federal, state and local government web resources and services.